Time;durP1;ratioP1;P1;durP2;ratioP2;P2;SDS_P1;SDS_P2;PMS_P1;PMS_P2;Temp;Humidity;BMP_temperature;BMP_pressure;BME280_temperature;BME280_humidity;BME280_pressure;Samples;Min_cycle;Max_cycle;Signal;HPM_P1;HPM_P2
2021/10/28 00:14:32;;;;;;;6.47;3.45;;;12.20;97.20;;;;;;5012525;28;20112;-75
2021/10/28 00:17:00;;;;;;;7.53;4.50;;;12.20;97.20;;;;;;5011797;28;20370;-75
2021/10/28 00:19:29;;;;;;;6.30;3.83;;;12.10;97.20;;;;;;5011075;28;20052;-75
2021/10/28 00:21:55;;;;;;;8.35;3.85;;;12.10;97.30;;;;;;5012266;28;20033;-75
2021/10/28 00:24:21;;;;;;;8.95;4.13;;;12.10;97.30;;;;;;5011588;28;20475;-75
2021/10/28 00:26:48;;;;;;;7.72;4.32;;;12.10;97.30;;;;;;5012142;28;20022;-75
2021/10/28 00:29:17;;;;;;;8.07;3.60;;;12.10;97.30;;;;;;5011518;28;20070;-74
2021/10/28 00:31:45;;;;;;;11.05;4.63;;;12.10;97.30;;;;;;5010783;28;20410;-76
2021/10/28 00:34:13;;;;;;;9.15;4.47;;;12.10;97.30;;;;;;5011590;28;20036;-74
2021/10/28 00:36:39;;;;;;;6.80;3.80;;;12.10;97.30;;;;;;5010749;28;20120;-74
2021/10/28 00:39:08;;;;;;;8.65;3.67;;;12.00;97.30;;;;;;5011205;28;20029;-75
2021/10/28 00:41:35;;;;;;;6.20;3.70;;;12.00;97.30;;;;;;5010352;28;20405;-75
2021/10/28 00:44:02;;;;;;;6.80;3.78;;;12.00;97.30;;;;;;5010061;28;20065;-75
2021/10/28 00:46:31;;;;;;;6.57;3.80;;;12.00;97.20;;;;;;5012085;28;20020;-76
2021/10/28 00:48:58;;;;;;;6.15;3.63;;;12.00;97.20;;;;;;5011883;28;20088;-75
2021/10/28 00:51:25;;;;;;;7.55;3.83;;;11.90;97.20;;;;;;5011141;28;20022;-74
2021/10/28 00:53:52;;;;;;;6.63;3.47;;;11.90;97.20;;;;;;5010848;28;20062;-74
2021/10/28 00:56:21;;;;;;;6.63;3.65;;;11.90;97.50;;;;;;5009991;28;20123;-76
2021/10/28 00:58:47;;;;;;;7.22;4.13;;;11.90;97.40;;;;;;5010373;28;20026;-76
2021/10/28 01:01:14;;;;;;;6.05;3.63;;;11.80;97.20;;;;;;5011341;28;20026;-76
2021/10/28 01:03:40;;;;;;;5.10;3.20;;;11.80;97.20;;;;;;5010543;28;20034;-74
2021/10/28 01:06:07;;;;;;;8.80;3.83;;;11.80;97.20;;;;;;5009893;28;20026;-74
2021/10/28 01:08:37;;;;;;;7.68;3.78;;;11.80;97.20;;;;;;5011959;28;20096;-74
2021/10/28 01:11:04;;;;;;;6.95;4.10;;;11.80;97.20;;;;;;5013791;28;20026;-74
2021/10/28 01:13:29;;;;;;;6.10;3.75;;;11.70;97.20;;;;;;5015542;28;20057;-75
2021/10/28 01:15:56;;;;;;;7.75;3.75;;;11.70;97.20;;;;;;5015634;28;20467;-74
2021/10/28 01:18:23;;;;;;;7.15;3.63;;;11.70;97.20;;;;;;5014859;28;20354;-74
2021/10/28 01:20:52;;;;;;;6.38;3.70;;;11.60;97.20;;;;;;5015365;28;20026;-74
2021/10/28 01:23:23;;;;;;;6.20;3.65;;;11.60;97.20;;;;;;5014555;28;20049;-74
2021/10/28 01:25:50;;;;;;;;;;;11.60;97.20;;;;;;5015764;28;20037;-77
2021/10/28 01:28:17;;;;;;;4.53;2.88;;;11.60;97.20;;;;;;5014456;28;19905;-77
2021/10/28 01:30:51;;;;;;;6.32;3.50;;;11.60;97.10;;;;;;5014994;28;20034;-76
2021/10/28 01:33:18;;;;;;;11.20;4.13;;;11.50;97.10;;;;;;5013295;28;20026;-75
2021/10/28 01:35:45;;;;;;;6.95;3.78;;;11.50;97.10;;;;;;5013745;28;20029;-76
2021/10/28 01:38:13;;;;;;;6.47;3.17;;;11.40;97.10;;;;;;5014501;28;20107;-76
2021/10/28 01:40:39;;;;;;;6.10;3.70;;;11.40;97.10;;;;;;5013262;28;20057;-75
2021/10/28 01:43:05;;;;;;;6.60;4.07;;;11.40;97.10;;;;;;5013078;28;20029;-76
2021/10/28 01:45:32;;;;;;;6.50;3.50;;;11.40;97.20;;;;;;5014874;28;20046;-75
2021/10/28 01:47:59;;;;;;;6.85;3.70;;;11.40;97.20;;;;;;5014984;28;20022;-76
2021/10/28 01:50:28;;;;;;;7.03;4.15;;;11.30;97.10;;;;;;5013038;28;20061;-76
2021/10/28 01:52:54;;;;;;;7.60;3.70;;;11.40;97.20;;;;;;5014859;28;20030;-76
2021/10/28 01:55:20;;;;;;;6.35;3.70;;;11.30;97.10;;;;;;5014243;28;20034;-76
2021/10/28 01:57:46;;;;;;;8.02;4.00;;;11.30;97.10;;;;;;5014482;28;20028;-76
2021/10/28 02:00:15;;;;;;;7.50;4.07;;;11.30;97.20;;;;;;5014208;28;20520;-76
2021/10/28 02:02:42;;;;;;;6.57;3.88;;;11.30;97.20;;;;;;5014650;28;20118;-76
2021/10/28 02:05:15;;;;;;;6.88;4.28;;;11.30;97.20;;;;;;5013864;28;20038;-76
2021/10/28 02:07:42;;;;;;;6.07;3.80;;;11.20;97.10;;;;;;5013507;28;20420;-77
2021/10/28 02:10:09;;;;;;;9.07;3.85;;;11.20;97.10;;;;;;5013951;28;20080;-76
2021/10/28 02:12:36;;;;;;;6.45;3.65;;;11.20;97.10;;;;;;5014531;28;20022;-74
2021/10/28 02:15:12;;;;;;;8.10;3.92;;;11.20;97.10;;;;;;5014202;28;20390;-75
2021/10/28 02:17:38;;;;;;;8.32;3.83;;;11.20;97.10;;;;;;5014322;28;20376;-74
2021/10/28 02:20:06;;;;;;;8.23;3.80;;;11.10;97.00;;;;;;5014156;28;20018;-74
2021/10/28 02:22:32;;;;;;;7.25;3.78;;;11.10;97.00;;;;;;5012998;28;20115;-74
2021/10/28 02:24:58;;;;;;;6.97;3.75;;;11.10;97.00;;;;;;5014197;28;20026;-74
2021/10/28 02:27:24;;;;;;;9.07;4.32;;;11.00;97.00;;;;;;5013676;28;20052;-74
2021/10/28 02:29:50;;;;;;;5.93;3.28;;;11.00;97.00;;;;;;5012934;28;20021;-75
2021/10/28 02:32:16;;;;;;;7.95;3.95;;;10.90;97.00;;;;;;5013200;28;20058;-74
2021/10/28 02:34:42;;;;;;;7.63;4.13;;;11.00;97.10;;;;;;5014091;28;20468;-75
2021/10/28 02:37:08;;;;;;;5.90;3.58;;;10.90;97.00;;;;;;5012132;28;20092;-74
2021/10/28 02:39:34;;;;;;;7.00;3.70;;;11.00;97.10;;;;;;5013388;28;20022;-75
2021/10/28 02:42:00;;;;;;;7.07;3.80;;;10.90;97.00;;;;;;5014120;28;20045;-75
2021/10/28 02:44:26;;;;;;;6.30;3.40;;;10.90;97.00;;;;;;5011927;28;20062;-74
2021/10/28 02:46:52;;;;;;;5.70;3.40;;;10.90;97.00;;;;;;5012527;28;20437;-75
2021/10/28 02:49:18;;;;;;;6.60;3.70;;;10.90;97.00;;;;;;5013261;28;20088;-75
2021/10/28 02:51:48;;;;;;;8.68;3.78;;;10.90;97.00;;;;;;5012433;28;20049;-75
2021/10/28 02:54:15;;;;;;;7.55;4.38;;;10.90;97.00;;;;;;5013120;28;20030;-75
2021/10/28 02:56:40;;;;;;;9.02;5.68;;;10.90;97.00;;;;;;5012361;28;20037;-75
2021/10/28 02:59:06;;;;;;;11.07;5.53;;;10.80;96.90;;;;;;5012070;28;20152;-75
2021/10/28 03:01:32;;;;;;;9.95;5.68;;;10.80;97.00;;;;;;5012998;28;20037;-75
2021/10/28 03:03:57;;;;;;;9.32;5.35;;;10.80;96.90;;;;;;5012244;28;20026;-75
2021/10/28 03:06:23;;;;;;;9.85;5.82;;;10.80;97.00;;;;;;5012709;28;20140;-75
2021/10/28 03:08:50;;;;;;;9.05;5.35;;;10.80;97.00;;;;;;5012102;28;20025;-75
2021/10/28 03:11:17;;;;;;;8.23;4.70;;;10.80;97.10;;;;;;5012448;28;20068;-75
2021/10/28 03:13:45;;;;;;;9.25;4.80;;;10.80;97.10;;;;;;5012149;28;20445;-75
2021/10/28 03:16:56;;;;;;;9.57;4.95;;;10.80;97.10;;;;;;5011319;28;20049;-75
2021/10/28 03:27:14;;;;;;;9.48;5.20;;;10.70;97.10;;;;;;5011051;28;20113;-74
2021/10/28 03:29:39;;;;;;;9.70;5.03;;;10.70;97.10;;;;;;5012864;28;20064;-75
2021/10/28 03:32:05;;;;;;;8.52;5.35;;;10.80;97.10;;;;;;5012454;28;20022;-75
2021/10/28 03:34:31;;;;;;;8.65;4.90;;;10.70;97.10;;;;;;5011881;28;20107;-75
2021/10/28 03:37:07;;;;;;;10.00;5.13;;;10.70;97.20;;;;;;5012929;28;20021;-75
2021/10/28 04:06:24;;;;;;;8.40;4.90;;;10.70;97.10;;;;;;5003349;28;20056;-75
2021/10/28 04:19:45;;;;;;;9.73;4.20;;;10.60;97.10;;;;;;4992230;28;20176;-75
2021/10/28 04:30:17;;;;;;;11.93;5.38;;;10.60;97.10;;;;;;4995845;28;20026;-75
2021/10/28 04:32:43;;;;;;;11.23;5.35;;;10.60;97.20;;;;;;4996520;28;20029;-79
2021/10/28 04:35:09;;;;;;;8.50;5.43;;;10.60;97.20;;;;;;5003635;28;20026;-76
2021/10/28 04:37:37;;;;;;;8.15;4.63;;;10.60;97.20;;;;;;4996646;28;20097;-78
2021/10/28 04:40:07;;;;;;;10.18;4.97;;;10.60;97.20;;;;;;4990349;28;20046;-79
2021/10/28 04:42:34;;;;;;;8.13;4.68;;;10.60;97.20;;;;;;4989960;28;20023;-79
2021/10/28 04:44:59;;;;;;;9.48;5.03;;;10.60;97.10;;;;;;4992852;28;20181;-79
2021/10/28 04:47:25;;;;;;;8.70;5.18;;;10.60;97.20;;;;;;4993664;28;20098;-77
2021/10/28 04:49:51;;;;;;;10.93;5.32;;;10.60;97.20;;;;;;5006685;28;20033;-77
2021/10/28 04:52:18;;;;;;;9.25;4.60;;;10.60;97.20;;;;;;5014001;28;20033;-78
2021/10/28 04:54:44;;;;;;;9.77;4.78;;;10.50;97.20;;;;;;5012730;28;20049;-78
2021/10/28 04:57:09;;;;;;;10.68;5.40;;;10.50;97.20;;;;;;5013980;28;20079;-78
2021/10/28 04:59:35;;;;;;;6.95;4.25;;;10.50;97.20;;;;;;5013700;28;20022;-79
2021/10/28 05:02:01;;;;;;;8.52;5.30;;;10.50;97.20;;;;;;5006618;28;20100;-79
2021/10/28 05:04:26;;;;;;;9.15;4.80;;;10.50;97.20;;;;;;4999495;28;20026;-80
2021/10/28 05:06:52;;;;;;;10.98;5.03;;;10.50;97.30;;;;;;5005128;28;20029;-79
2021/10/28 05:09:23;;;;;;;12.10;4.90;;;10.50;97.30;;;;;;4996971;28;20084;-79
2021/10/28 05:11:49;;;;;;;10.57;4.70;;;10.50;97.30;;;;;;5020891;28;20033;-78
2021/10/28 05:14:15;;;;;;;9.70;4.65;;;10.50;97.20;;;;;;5016116;28;20029;-79
2021/10/28 05:16:41;;;;;;;8.32;4.47;;;10.50;97.20;;;;;;4996717;28;20337;-79
2021/10/28 05:19:07;;;;;;;9.43;4.72;;;10.50;97.20;;;;;;5012197;28;20022;-75
2021/10/28 05:21:32;;;;;;;7.70;4.15;;;10.50;97.10;;;;;;4993171;28;20025;-75
2021/10/28 05:23:58;;;;;;;8.20;4.32;;;10.50;97.10;;;;;;4995131;28;20463;-75
2021/10/28 05:26:24;;;;;;;10.48;5.07;;;10.50;97.10;;;;;;4995105;28;20085;-74
2021/10/28 05:28:50;;;;;;;10.32;5.20;;;10.40;97.10;;;;;;4995755;28;20049;-75
2021/10/28 05:31:17;;;;;;;8.25;4.60;;;10.40;97.10;;;;;;4994311;28;20058;-75
2021/10/28 05:33:43;;;;;;;9.50;5.05;;;10.40;97.20;;;;;;5010030;28;20019;-75
2021/10/28 05:36:09;;;;;;;10.40;4.70;;;10.40;97.20;;;;;;4995649;28;20121;-75
2021/10/28 05:38:34;;;;;;;8.63;4.75;;;10.40;97.20;;;;;;4995035;28;20027;-75
2021/10/28 05:41:00;;;;;;;9.18;4.68;;;10.40;97.30;;;;;;4995244;28;20078;-75
2021/10/28 05:43:26;;;;;;;9.10;4.85;;;10.40;97.20;;;;;;5009707;28;20096;-75
2021/10/28 05:45:51;;;;;;;10.63;5.43;;;10.40;97.20;;;;;;4995024;28;20380;-75
2021/10/28 05:48:17;;;;;;;10.77;5.10;;;10.40;97.30;;;;;;4995486;28;20023;-75
2021/10/28 05:50:46;;;;;;;8.75;5.10;;;10.40;97.30;;;;;;4994635;28;20097;-75
2021/10/28 05:53:13;;;;;;;9.32;5.13;;;10.40;97.30;;;;;;4995328;28;20032;-76
2021/10/28 05:55:38;;;;;;;9.32;5.28;;;10.40;97.30;;;;;;4993762;28;20427;-75
2021/10/28 05:58:04;;;;;;;10.82;5.53;;;10.40;97.30;;;;;;4993872;28;20074;-75
2021/10/28 06:00:30;;;;;;;9.52;4.63;;;10.40;97.30;;;;;;4993108;28;20455;-74
2021/10/28 06:02:56;;;;;;;8.50;4.68;;;10.40;97.30;;;;;;4995223;28;20113;-75
2021/10/28 06:05:22;;;;;;;9.02;4.28;;;10.40;97.30;;;;;;4994716;28;20044;-75
2021/10/28 06:07:48;;;;;;;10.05;5.72;;;10.40;97.30;;;;;;4994767;28;20142;-74
2021/10/28 06:10:19;;;;;;;9.45;4.88;;;10.40;97.20;;;;;;4995028;28;20487;-75
2021/10/28 06:12:48;;;;;;;8.52;4.80;;;10.40;97.30;;;;;;4994410;28;20030;-74
2021/10/28 06:15:15;;;;;;;10.20;5.13;;;10.40;97.30;;;;;;4994568;28;20049;-75
2021/10/28 06:20:17;;;;;;;9.85;4.95;;;10.40;97.20;;;;;;4994825;28;20081;-74
2021/10/28 06:22:43;;;;;;;10.13;4.53;;;10.40;97.20;;;;;;4994071;28;20045;-75
2021/10/28 06:25:09;;;;;;;10.18;4.97;;;10.30;97.20;;;;;;5009647;28;20455;-75
2021/10/28 06:27:35;;;;;;;8.20;4.57;;;10.30;97.10;;;;;;4993880;28;20050;-75
2021/10/28 06:30:01;;;;;;;9.50;4.68;;;10.30;97.10;;;;;;4993341;28;20022;-75
2021/10/28 06:32:26;;;;;;;11.15;5.00;;;10.30;97.10;;;;;;4992752;28;20080;-74
2021/10/28 06:34:52;;;;;;;8.93;4.35;;;10.30;97.10;;;;;;4993279;28;20092;-74
2021/10/28 06:37:18;;;;;;;10.98;4.80;;;10.20;97.10;;;;;;4994360;28;20110;-76
2021/10/28 06:39:44;;;;;;;15.52;5.00;;;10.30;97.20;;;;;;4992254;28;20372;-74
2021/10/28 06:42:14;;;;;;;9.27;4.72;;;10.20;97.20;;;;;;4994255;28;20023;-74
2021/10/28 06:44:41;;;;;;;10.65;5.13;;;10.30;97.20;;;;;;4993639;28;20038;-75
2021/10/28 06:47:07;;;;;;;9.98;5.10;;;10.20;97.10;;;;;;5009300;28;20029;-75
2021/10/28 06:49:36;;;;;;;8.88;5.10;;;10.20;97.10;;;;;;4993538;28;20026;-75
2021/10/28 06:52:05;;;;;;;9.18;4.60;;;10.20;97.10;;;;;;4994014;28;20030;-75
2021/10/28 06:54:36;;;;;;;8.77;5.13;;;10.20;97.10;;;;;;4993680;28;20030;-75
2021/10/28 07:02:36;;;;;;;11.82;5.38;;;10.20;97.10;;;;;;4994093;28;20033;-75
2021/10/28 07:05:05;;;;;;;12.98;5.50;;;10.20;97.10;;;;;;4994018;28;20034;-75
2021/10/28 07:07:33;;;;;;;9.55;5.45;;;10.20;97.10;;;;;;4992165;28;20036;-74
2021/10/28 07:10:18;;;;;;;11.18;5.18;;;10.20;97.10;;;;;;4993802;28;20027;-75
2021/10/28 07:12:57;;;;;;;10.55;5.60;;;10.20;97.10;;;;;;5008173;28;20110;-75
2021/10/28 07:15:30;;;;;;;11.63;4.65;;;10.20;97.00;;;;;;5008831;28;20048;-75
2021/10/28 07:23:29;;;;;;;10.88;5.80;;;10.20;97.00;;;;;;4993332;28;20037;-74
2021/10/28 07:31:53;;;;;;;11.48;4.93;;;10.30;97.00;;;;;;4993463;28;20558;-75
2021/10/28 07:39:58;;;;;;;16.20;7.13;;;10.40;97.00;;;;;;4993161;28;20470;-75
2021/10/28 07:55:07;;;;;;;11.00;5.32;;;10.40;96.90;;;;;;4992992;28;20041;-75
2021/10/28 08:23:56;;;;;;;10.07;4.65;;;10.70;96.90;;;;;;4990423;28;19909;-76
2021/10/28 08:29:20;;;;;;;10.85;5.25;;;10.80;96.90;;;;;;4992587;28;20038;-76
2021/10/28 08:31:46;;;;;;;10.77;5.43;;;10.80;96.80;;;;;;5007230;28;20177;-76
2021/10/28 08:34:11;;;;;;;11.85;5.43;;;10.90;96.90;;;;;;4992631;28;20471;-76
2021/10/28 08:36:56;;;;;;;12.25;5.95;;;10.90;96.90;;;;;;5006911;28;20023;-75
2021/10/28 08:39:22;;;;;;;11.07;5.43;;;10.90;96.90;;;;;;4992445;28;20034;-75
2021/10/28 08:41:49;;;;;;;13.02;5.60;;;11.00;96.90;;;;;;5006570;28;20032;-75
2021/10/28 08:44:19;;;;;;;12.05;5.78;;;11.00;96.90;;;;;;4992312;28;20035;-75
2021/10/28 08:46:50;;;;;;;13.05;4.93;;;11.10;96.90;;;;;;4991743;28;20471;-75
2021/10/28 08:49:21;;;;;;;15.23;6.68;;;11.10;96.90;;;;;;4992482;28;20049;-76
2021/10/28 08:57:20;;;;;;;13.00;5.95;;;11.20;96.80;;;;;;4991263;28;20034;-75
2021/10/28 09:24:45;;;;;;;13.75;5.60;;;11.70;96.70;;;;;;4991366;28;20044;-75
2021/10/28 09:27:21;;;;;;;14.18;6.75;;;11.70;96.70;;;;;;4992083;28;20456;-76
2021/10/28 09:30:09;;;;;;;12.07;5.95;;;11.80;96.70;;;;;;4992187;28;20143;-75
2021/10/28 09:32:56;;;;;;;12.55;6.82;;;11.80;96.70;;;;;;4995707;28;20379;-75
2021/10/28 09:35:32;;;;;;;10.88;5.25;;;11.90;96.70;;;;;;5010867;28;20026;-75
2021/10/28 09:51:45;;;;;;;13.32;5.97;;;12.20;96.60;;;;;;4994865;28;20033;-75
2021/10/28 09:54:31;;;;;;;12.40;5.78;;;12.20;96.60;;;;;;5010046;28;20029;-75
2021/10/28 09:59:42;;;;;;;14.38;6.07;;;12.30;96.50;;;;;;4994447;28;20457;-75
2021/10/28 10:02:32;;;;;;;11.27;5.45;;;12.40;96.50;;;;;;4993733;28;20408;-75
2021/10/28 10:05:04;;;;;;;13.55;6.35;;;12.40;96.50;;;;;;5009578;28;20093;-75
2021/10/28 10:07:30;;;;;;;12.18;5.70;;;12.40;96.40;;;;;;4995036;28;20026;-75
2021/10/28 10:09:58;;;;;;;10.30;5.20;;;12.50;96.40;;;;;;4994418;28;20026;-75
2021/10/28 10:12:24;;;;;;;10.70;5.68;;;12.60;96.50;;;;;;4994866;28;20026;-75
2021/10/28 10:14:50;;;;;;;11.70;5.50;;;12.60;96.40;;;;;;5009214;28;20081;-75
2021/10/28 10:17:18;;;;;;;10.82;5.57;;;12.60;96.40;;;;;;4995043;28;20038;-75
2021/10/28 10:19:48;;;;;;;10.00;5.68;;;12.70;96.40;;;;;;4993876;28;20426;-75
2021/10/28 10:30:15;;;;;;;15.20;6.28;;;12.90;96.30;;;;;;4993954;28;20141;-75
2021/10/28 11:21:45;;;;;;;9.90;4.70;;;15.90;94.80;;;;;;4993984;28;20069;-76
2021/10/28 11:30:23;;;;;;;13.55;6.43;;;16.30;94.40;;;;;;4993436;28;20112;-76
2021/10/28 12:43:57;;;;;;;13.38;6.55;;;15.90;93.60;;;;;;4992689;28;20038;-75
2021/10/28 12:46:25;;;;;;;15.32;7.22;;;15.90;93.60;;;;;;4991176;28;20128;-75
2021/10/28 12:49:30;;;;;;;13.07;6.70;;;15.90;93.60;;;;;;4991551;28;20356;-76
2021/10/28 12:52:25;;;;;;;14.80;7.30;;;15.90;93.60;;;;;;4992050;28;20446;-75
2021/10/28 14:35:11;;;;;;;7.20;3.67;;;15.50;92.50;;;;;;4994684;28;20065;-76
2021/10/28 15:00:16;;;;;;;6.78;3.67;;;15.30;92.50;;;;;;4993505;28;20069;-75
2021/10/28 15:30:34;;;;;;;6.38;3.22;;;15.10;92.70;;;;;;4993510;28;20045;-76
2021/10/28 15:35:16;;;;;;;7.57;2.80;;;15.00;92.70;;;;;;4993594;28;20040;-76
2021/10/28 15:40:25;;;;;;;5.57;2.70;;;15.00;92.90;;;;;;4992706;28;20050;-75
2021/10/28 15:53:55;;;;;;;6.70;3.03;;;14.80;93.30;;;;;;4992655;28;20053;-76
2021/10/28 15:59:30;;;;;;;6.05;2.90;;;14.60;93.50;;;;;;4993094;28;20049;-75
2021/10/28 16:23:23;;;;;;;7.43;3.70;;;14.30;94.10;;;;;;4994685;28;20045;-76
2021/10/28 16:25:49;;;;;;;7.30;3.45;;;14.20;94.20;;;;;;4997698;28;20030;-75
2021/10/28 16:28:16;;;;;;;9.05;3.35;;;14.20;94.20;;;;;;5010510;28;20455;-75
2021/10/28 16:30:44;;;;;;;8.77;3.95;;;14.20;94.30;;;;;;5004053;28;20029;-75
2021/10/28 16:33:10;;;;;;;5.97;3.17;;;14.10;94.30;;;;;;5001042;28;21501;-75
2021/10/28 16:35:36;;;;;;;6.78;3.45;;;14.10;94.40;;;;;;5016834;28;20080;-75
2021/10/28 16:38:04;;;;;;;6.15;3.33;;;14.10;94.40;;;;;;4996101;28;20022;-75
2021/10/28 16:40:30;;;;;;;8.85;3.50;;;14.10;94.50;;;;;;4994345;28;20096;-76
2021/10/28 16:42:56;;;;;;;7.65;4.00;;;14.10;94.50;;;;;;5007723;28;20026;-75
2021/10/28 16:45:22;;;;;;;8.05;4.10;;;14.00;94.50;;;;;;4996341;28;20039;-75
2021/10/28 16:47:47;;;;;;;10.52;3.80;;;14.00;94.60;;;;;;5007496;28;20033;-75
2021/10/28 16:50:14;;;;;;;6.70;3.20;;;14.00;94.70;;;;;;4996681;28;20113;-75
2021/10/28 16:52:40;;;;;;;6.15;3.53;;;13.90;94.70;;;;;;4993999;28;20130;-75
2021/10/28 16:55:07;;;;;;;7.38;3.55;;;13.90;94.80;;;;;;4994465;28;20026;-76
2021/10/28 16:57:33;;;;;;;7.28;3.47;;;13.80;94.80;;;;;;4994130;28;20033;-77
2021/10/28 16:59:58;;;;;;;6.10;3.42;;;13.80;94.80;;;;;;4993015;28;20026;-76
2021/10/28 17:02:24;;;;;;;7.38;3.58;;;13.80;94.90;;;;;;5008761;28;20506;-77
2021/10/28 17:04:50;;;;;;;7.25;3.50;;;13.80;95.00;;;;;;4992331;28;20076;-75
2021/10/28 17:07:16;;;;;;;5.43;3.33;;;13.80;95.00;;;;;;5008517;28;20177;-76
2021/10/28 17:09:42;;;;;;;5.53;3.53;;;13.70;95.00;;;;;;4992469;28;20097;-77
2021/10/28 17:12:08;;;;;;;6.82;4.03;;;13.70;95.10;;;;;;4993605;28;20108;-76
2021/10/28 17:14:34;;;;;;;7.20;4.18;;;13.70;95.10;;;;;;4993961;28;20049;-76
2021/10/28 17:17:00;;;;;;;9.70;4.07;;;13.70;95.10;;;;;;5008581;28;20439;-79
2021/10/28 17:19:26;;;;;;;7.03;3.42;;;13.60;95.20;;;;;;4992220;28;20041;-76
2021/10/28 17:21:52;;;;;;;7.75;4.03;;;13.60;95.20;;;;;;4993799;28;20044;-76
2021/10/28 17:24:32;;;;;;;8.90;4.07;;;13.60;95.20;;;;;;5008299;28;20022;-76
2021/10/28 17:26:58;;;;;;;7.72;4.25;;;13.60;95.20;;;;;;4994042;28;20030;-77
2021/10/28 17:29:24;;;;;;;6.60;3.90;;;13.50;95.20;;;;;;4991988;28;20021;-77
2021/10/28 17:31:52;;;;;;;8.00;4.07;;;13.50;95.30;;;;;;4993429;28;20057;-76
2021/10/28 17:34:18;;;;;;;8.27;4.25;;;13.50;95.30;;;;;;4992722;28;20146;-76
2021/10/28 17:36:48;;;;;;;7.13;4.35;;;13.50;95.40;;;;;;5008724;28;20063;-76
2021/10/28 17:39:14;;;;;;;7.45;4.22;;;13.50;95.40;;;;;;5008114;28;20018;-75
2021/10/28 17:41:40;;;;;;;9.25;4.72;;;13.50;95.40;;;;;;4993185;28;20045;-76
2021/10/28 17:44:06;;;;;;;8.75;4.53;;;13.50;95.50;;;;;;4993133;28;20049;-76
2021/10/28 17:46:32;;;;;;;8.65;4.57;;;13.50;95.50;;;;;;5007895;28;20459;-77
2021/10/28 17:48:58;;;;;;;9.10;4.45;;;13.40;95.50;;;;;;4992030;28;20029;-75
2021/10/28 17:51:24;;;;;;;7.95;4.85;;;13.40;95.50;;;;;;4990238;28;20033;-77
2021/10/28 17:53:51;;;;;;;10.75;4.43;;;13.40;95.60;;;;;;4993498;28;20018;-76
2021/10/28 17:56:17;;;;;;;9.45;4.78;;;13.40;95.60;;;;;;4992660;28;20058;-75
2021/10/28 17:58:45;;;;;;;9.55;5.10;;;13.40;95.60;;;;;;5008565;28;20018;-76
2021/10/28 18:01:14;;;;;;;8.77;5.25;;;13.40;95.70;;;;;;4993404;28;20521;-75
2021/10/28 18:03:39;;;;;;;7.25;3.45;;;13.30;95.70;;;;;;4993368;28;20015;-75
2021/10/28 18:06:05;;;;;;;8.25;4.38;;;13.30;95.70;;;;;;4991746;28;20421;-77
2021/10/28 18:08:31;;;;;;;11.23;5.20;;;13.30;95.80;;;;;;5007586;28;20439;-75
2021/10/28 18:10:58;;;;;;;9.85;4.40;;;13.30;95.80;;;;;;4992552;28;20018;-76
2021/10/28 18:13:23;;;;;;;8.77;5.07;;;13.20;95.80;;;;;;5007392;28;20408;-75
2021/10/28 18:15:50;;;;;;;11.80;4.60;;;13.20;95.80;;;;;;4992913;28;20073;-75
2021/10/28 18:18:16;;;;;;;9.50;5.00;;;13.20;95.80;;;;;;4992306;28;20085;-75
2021/10/28 18:20:42;;;;;;;8.77;5.07;;;13.20;95.90;;;;;;4991345;28;20399;-76
2021/10/28 18:23:08;;;;;;;11.00;5.07;;;13.20;96.20;;;;;;5007238;28;20029;-76
2021/10/28 18:25:35;;;;;;;7.63;4.20;;;13.20;95.90;;;;;;4992051;28;20030;-77
2021/10/28 18:28:01;;;;;;;11.05;5.00;;;13.10;95.90;;;;;;5007538;28;20026;-76
2021/10/28 18:30:29;;;;;;;8.65;5.45;;;13.10;95.90;;;;;;4990637;28;20061;-75
2021/10/28 18:32:58;;;;;;;8.57;4.72;;;13.10;96.00;;;;;;5007671;28;20026;-75
2021/10/28 18:35:23;;;;;;;9.80;4.53;;;13.10;95.90;;;;;;5006678;28;20374;-75
2021/10/28 18:37:49;;;;;;;10.63;5.40;;;13.10;96.00;;;;;;4990783;28;20105;-76
2021/10/28 18:40:16;;;;;;;12.32;5.47;;;13.10;96.00;;;;;;5006523;28;20070;-75
2021/10/28 18:42:43;;;;;;;12.60;5.47;;;13.00;96.00;;;;;;4992531;28;20120;-75
2021/10/28 18:45:09;;;;;;;10.50;5.88;;;13.00;96.00;;;;;;4992397;28;20022;-75
2021/10/28 18:47:35;;;;;;;10.30;5.55;;;13.00;96.10;;;;;;4991477;28;20077;-76
2021/10/28 18:50:04;;;;;;;10.30;5.70;;;13.00;96.10;;;;;;5006819;28;20018;-77
2021/10/28 18:52:30;;;;;;;11.02;5.70;;;13.00;96.10;;;;;;4991581;28;20022;-77
2021/10/28 18:54:56;;;;;;;9.40;4.95;;;13.00;96.10;;;;;;5007275;28;20339;-76
2021/10/28 18:57:22;;;;;;;9.38;5.35;;;13.00;96.10;;;;;;4991734;28;20023;-76
2021/10/28 18:59:48;;;;;;;11.15;5.15;;;12.90;96.10;;;;;;5007013;28;20379;-75
2021/10/28 19:02:16;;;;;;;9.98;5.88;;;12.90;96.10;;;;;;4990224;28;20030;-75
2021/10/28 19:04:42;;;;;;;8.48;5.13;;;12.90;96.10;;;;;;4990522;28;20034;-76
2021/10/28 19:07:10;;;;;;;10.98;5.85;;;12.90;96.10;;;;;;4992056;28;20093;-76
2021/10/28 19:09:36;;;;;;;10.10;5.15;;;12.90;96.10;;;;;;4991337;28;20100;-75
2021/10/28 19:12:01;;;;;;;10.48;5.47;;;12.80;96.10;;;;;;4990607;28;20018;-75
2021/10/28 19:14:28;;;;;;;12.98;5.38;;;12.80;96.10;;;;;;4989801;28;20471;-76
2021/10/28 19:16:54;;;;;;;9.35;5.32;;;12.80;96.10;;;;;;4991821;28;20030;-78
2021/10/28 19:19:21;;;;;;;14.32;5.82;;;12.80;96.20;;;;;;4989884;28;20477;-77
2021/10/28 19:21:47;;;;;;;14.15;6.05;;;12.80;96.20;;;;;;5006557;28;20057;-76
2021/10/28 19:24:13;;;;;;;10.73;5.95;;;12.80;96.20;;;;;;4991961;28;20037;-76
2021/10/28 19:26:39;;;;;;;9.88;5.43;;;12.70;96.20;;;;;;5006080;28;20023;-77
2021/10/28 19:29:06;;;;;;;8.35;5.03;;;12.70;96.20;;;;;;4989586;28;20010;-76
2021/10/28 19:34:20;;;;;;;9.05;5.00;;;12.70;96.20;;;;;;5004137;28;20052;-77
2021/10/28 19:47:01;;;;;;;12.25;6.70;;;12.60;96.30;;;;;;5004570;28;20765;-77
2021/10/28 19:49:27;;;;;;;10.70;6.03;;;12.60;96.30;;;;;;5004828;28;20040;-77
2021/10/28 19:51:53;;;;;;;13.02;6.35;;;12.50;96.30;;;;;;5005434;28;20038;-76
2021/10/28 19:54:19;;;;;;;10.80;6.20;;;12.50;96.30;;;;;;5005586;28;20029;-76
2021/10/28 19:56:45;;;;;;;10.80;5.80;;;12.50;96.30;;;;;;5002855;28;20017;-75
2021/10/28 19:59:14;;;;;;;8.85;5.00;;;12.50;96.30;;;;;;5016123;28;20517;-76
2021/10/28 20:01:47;;;;;;;10.50;6.03;;;12.50;96.30;;;;;;5005104;28;20442;-76
2021/10/28 20:06:50;;;;;;;9.10;5.30;;;12.50;96.30;;;;;;5011952;28;20079;-75
2021/10/28 20:20:21;;;;;;;8.80;4.68;;;12.40;96.30;;;;;;5012161;28;20025;-75
2021/10/28 20:22:49;;;;;;;10.02;5.07;;;12.40;96.30;;;;;;5012297;28;20362;-75
2021/10/28 20:25:19;;;;;;;9.80;5.35;;;12.40;96.30;;;;;;5011893;28;20458;-75
2021/10/28 20:27:49;;;;;;;9.40;5.38;;;12.40;96.30;;;;;;5011396;28;20366;-75
2021/10/28 20:30:17;;;;;;;8.38;5.32;;;12.40;96.30;;;;;;5012181;28;20032;-76
2021/10/28 20:32:43;;;;;;;10.20;5.20;;;12.30;96.30;;;;;;5010268;28;20025;-75
2021/10/28 20:37:51;;;;;;;;;;;12.30;96.30;;;;;;5012673;28;20068;-76
2021/10/28 20:40:17;;;;;;;8.25;4.80;;;12.30;96.30;;;;;;5010577;28;20277;-75
2021/10/28 20:42:49;;;;;;;8.60;4.80;;;12.30;96.30;;;;;;5009669;28;20022;-75
2021/10/28 20:45:24;;;;;;;9.50;5.25;;;12.30;96.30;;;;;;5012097;28;20029;-75
2021/10/28 20:47:54;;;;;;;10.23;5.60;;;12.30;96.40;;;;;;5010904;28;20447;-75
2021/10/28 20:50:27;;;;;;;8.77;4.85;;;12.20;96.40;;;;;;5010975;28;20175;-75
2021/10/28 20:52:54;;;;;;;12.73;5.35;;;12.20;96.40;;;;;;5010975;28;20077;-75
2021/10/28 20:55:20;;;;;;;8.82;5.05;;;12.20;96.40;;;;;;5012110;28;20500;-75
2021/10/28 20:57:48;;;;;;;9.93;5.63;;;12.20;96.40;;;;;;5010254;28;20018;-75
2021/10/28 21:00:17;;;;;;;9.57;5.45;;;12.20;96.40;;;;;;5012085;28;20029;-75
2021/10/28 21:02:44;;;;;;;10.77;5.53;;;12.10;96.40;;;;;;5011611;28;20033;-75
2021/10/28 21:05:12;;;;;;;10.65;5.85;;;12.10;96.40;;;;;;5010786;28;20338;-75
2021/10/28 21:07:43;;;;;;;9.15;5.72;;;12.10;96.40;;;;;;5011381;28;20028;-75
2021/10/28 21:10:11;;;;;;;11.32;5.60;;;12.10;96.50;;;;;;5011998;28;20018;-76
2021/10/28 21:12:39;;;;;;;9.90;5.20;;;12.10;96.40;;;;;;5011511;28;20022;-78
2021/10/28 21:15:06;;;;;;;12.50;6.63;;;12.10;96.40;;;;;;5012062;28;20458;-76
2021/10/28 21:17:34;;;;;;;11.25;5.50;;;12.10;96.40;;;;;;5011030;28;20095;-75
2021/10/28 21:20:01;;;;;;;10.98;6.50;;;12.00;96.40;;;;;;5012024;28;20021;-76
2021/10/28 21:22:27;;;;;;;11.13;5.70;;;12.00;96.40;;;;;;5010039;28;20018;-76
2021/10/28 21:24:52;;;;;;;12.15;5.88;;;12.00;96.40;;;;;;5012055;28;20033;-76
2021/10/28 21:27:19;;;;;;;10.40;6.07;;;12.00;96.40;;;;;;5014749;28;20030;-76
2021/10/28 21:29:45;;;;;;;10.57;5.55;;;12.00;96.40;;;;;;5030219;28;20022;-75
2021/10/28 21:32:12;;;;;;;12.10;6.03;;;12.00;96.40;;;;;;5030754;28;20033;-76
2021/10/28 21:34:40;;;;;;;11.88;5.80;;;12.00;96.50;;;;;;5013832;28;20362;-76
2021/10/28 21:37:08;;;;;;;12.63;5.78;;;11.90;96.50;;;;;;5015456;28;20513;-76
2021/10/28 21:39:34;;;;;;;10.57;5.90;;;11.90;96.50;;;;;;5014894;28;20029;-75
2021/10/28 21:42:00;;;;;;;11.07;6.10;;;11.90;96.50;;;;;;5029970;28;20057;-76